createdAt,value
2023-12-05T00:00:23.648Z,6.88
2023-12-05T00:02:51.660Z,6.93
2023-12-05T00:05:19.528Z,6.88
2023-12-05T00:07:47.233Z,6.63
2023-12-05T00:10:15.188Z,5.85
2023-12-05T00:12:42.862Z,6.15
2023-12-05T00:15:10.636Z,5.95
2023-12-05T00:17:38.326Z,6.07
2023-12-05T00:20:07.106Z,6.35
2023-12-05T00:22:34.813Z,5.22
2023-12-05T00:25:03.858Z,5.30
2023-12-05T00:27:31.482Z,6.13
2023-12-05T00:29:59.096Z,6.57
2023-12-05T00:32:26.742Z,7.15
2023-12-05T00:34:54.530Z,7.97
2023-12-05T00:37:23.087Z,8.10
2023-12-05T00:39:50.791Z,6.22
2023-12-05T00:42:18.593Z,8.20
2023-12-05T00:44:46.163Z,8.00
2023-12-05T00:47:13.749Z,6.70
2023-12-05T00:49:41.399Z,6.95
2023-12-05T00:52:09.261Z,8.60
2023-12-05T00:54:36.854Z,8.55
2023-12-05T00:57:04.757Z,8.60
2023-12-05T00:59:32.304Z,9.00
2023-12-05T01:01:59.962Z,9.73
2023-12-05T01:04:27.743Z,8.65
2023-12-05T01:06:55.588Z,9.98
2023-12-05T01:09:24.110Z,9.02
2023-12-05T01:11:53.035Z,10.70
2023-12-05T01:14:21.506Z,8.05
2023-12-05T01:16:49.203Z,9.57
2023-12-05T01:19:16.845Z,9.70
2023-12-05T01:21:44.540Z,9.90
2023-12-05T01:24:12.324Z,10.15
2023-12-05T01:26:39.918Z,9.38
2023-12-05T01:29:07.540Z,9.95
2023-12-05T01:31:35.173Z,9.35
2023-12-05T01:34:03.049Z,8.25
2023-12-05T01:36:32.176Z,8.65
2023-12-05T01:38:59.844Z,9.00
2023-12-05T01:41:27.396Z,8.95
2023-12-05T01:43:55.044Z,7.93
2023-12-05T01:46:23.092Z,9.32
2023-12-05T01:48:50.898Z,7.97
2023-12-05T01:51:19.170Z,8.65
2023-12-05T01:53:49.688Z,8.45
2023-12-05T01:56:19.382Z,8.65
2023-12-05T01:58:47.030Z,9.38
2023-12-05T02:01:16.988Z,9.93
2023-12-05T02:03:46.103Z,8.73
2023-12-05T02:06:15.022Z,9.07
2023-12-05T02:08:43.542Z,8.95
2023-12-05T02:11:11.639Z,9.65
2023-12-05T02:13:39.323Z,8.57
2023-12-05T02:16:36.685Z,8.73
2023-12-05T02:19:36.971Z,8.45
2023-12-05T02:22:13.772Z,8.15
2023-12-05T02:25:09.653Z,8.57
2023-12-05T02:27:43.754Z,7.15
2023-12-05T02:30:12.892Z,7.88
2023-12-05T02:32:40.579Z,7.47
2023-12-05T02:35:08.985Z,7.07
2023-12-05T02:37:49.030Z,5.22
2023-12-05T02:40:57.274Z,5.55
2023-12-05T02:43:47.831Z,5.75
2023-12-05T02:46:18.961Z,6.03
2023-12-05T02:48:47.149Z,5.90
2023-12-05T02:51:14.925Z,6.47
2023-12-05T02:53:42.555Z,6.15
2023-12-05T02:56:10.461Z,6.25
2023-12-05T02:58:38.391Z,6.05
2023-12-05T03:01:06.084Z,6.53
2023-12-05T03:03:33.788Z,5.85
2023-12-05T03:06:01.501Z,6.68
2023-12-05T03:08:29.181Z,6.75
2023-12-05T03:11:03.408Z,6.68
2023-12-05T03:13:34.618Z,5.65
2023-12-05T03:16:02.299Z,7.10
2023-12-05T03:18:30.024Z,6.70
2023-12-05T03:20:57.662Z,6.45
2023-12-05T03:23:25.462Z,7.45
2023-12-05T03:25:53.194Z,6.85
2023-12-05T03:28:20.818Z,6.78
2023-12-05T03:30:48.641Z,6.75
2023-12-05T03:33:16.486Z,6.03
2023-12-05T03:35:44.369Z,6.40
2023-12-05T03:38:12.048Z,6.40
2023-12-05T03:40:39.677Z,5.95
2023-12-05T03:43:07.285Z,6.90
2023-12-05T03:45:35.063Z,7.25
2023-12-05T03:48:03.022Z,7.50
2023-12-05T03:50:30.637Z,7.63
2023-12-05T03:52:58.374Z,7.30
2023-12-05T03:55:25.952Z,7.90
2023-12-05T03:57:53.614Z,6.85
2023-12-05T04:00:22.053Z,7.82
2023-12-05T04:02:49.823Z,6.53
2023-12-05T04:05:17.791Z,6.00
2023-12-05T04:07:45.937Z,6.72
2023-12-05T04:10:13.857Z,6.35
2023-12-05T04:12:41.876Z,6.78
2023-12-05T04:15:10.167Z,5.90
2023-12-05T04:17:37.781Z,6.30
2023-12-05T04:20:07.460Z,6.55
2023-12-05T04:22:35.067Z,6.35
2023-12-05T04:25:02.751Z,6.75
2023-12-05T04:27:30.916Z,6.55
2023-12-05T04:29:58.550Z,6.05
2023-12-05T04:32:26.157Z,6.40
2023-12-05T04:34:53.775Z,7.15
2023-12-05T04:37:21.448Z,6.25
2023-12-05T04:39:49.875Z,6.90
2023-12-05T04:42:18.223Z,6.00
2023-12-05T04:44:45.922Z,6.43
2023-12-05T04:47:13.605Z,6.25
2023-12-05T04:49:41.406Z,5.90
2023-12-05T04:52:09.139Z,6.60
2023-12-05T04:54:36.763Z,5.50
2023-12-05T04:57:04.916Z,6.00
2023-12-05T04:59:32.529Z,6.03
2023-12-05T05:02:00.328Z,6.22
2023-12-05T05:04:28.601Z,6.13
2023-12-05T05:06:56.345Z,6.55
2023-12-05T05:09:23.970Z,5.78
2023-12-05T05:11:51.692Z,5.03
2023-12-05T05:14:19.335Z,5.95
2023-12-05T05:16:46.979Z,6.38
2023-12-05T05:19:14.835Z,5.80
2023-12-05T05:21:42.542Z,6.22
2023-12-05T05:24:10.280Z,6.18
2023-12-05T05:26:37.937Z,6.18
2023-12-05T05:29:06.821Z,6.15
2023-12-05T05:31:36.105Z,5.70
2023-12-05T05:34:04.906Z,5.90
2023-12-05T05:36:32.713Z,5.35
2023-12-05T05:39:01.539Z,7.03
2023-12-05T05:41:29.132Z,6.70
2023-12-05T05:43:57.264Z,5.93
2023-12-05T05:46:25.798Z,6.50
2023-12-05T05:48:53.627Z,6.95
2023-12-05T05:51:21.318Z,5.97
2023-12-05T05:53:49.039Z,6.10
2023-12-05T05:56:16.687Z,6.15
2023-12-05T05:58:44.503Z,5.72
2023-12-05T06:01:13.458Z,5.45
2023-12-05T06:03:44.303Z,6.13
2023-12-05T06:06:12.038Z,3.80
2023-12-05T06:08:39.738Z,4.65
2023-12-05T06:11:07.778Z,6.30
2023-12-05T06:13:35.526Z,6.07
2023-12-05T06:16:03.178Z,5.82
2023-12-05T06:18:30.914Z,5.43
2023-12-05T06:20:59.137Z,4.28
2023-12-05T06:23:26.761Z,5.75
2023-12-05T06:25:54.393Z,6.18
2023-12-05T06:28:21.947Z,5.22
2023-12-05T06:30:49.689Z,4.90
2023-12-05T06:33:17.370Z,5.93
2023-12-05T06:35:45.155Z,5.57
2023-12-05T06:38:12.798Z,5.43
2023-12-05T06:40:40.444Z,4.72
2023-12-05T06:43:08.915Z,5.68
2023-12-05T06:45:36.754Z,4.75
2023-12-05T06:48:05.753Z,5.78
2023-12-05T06:50:33.826Z,6.20
2023-12-05T06:53:02.702Z,5.70
2023-12-05T06:55:30.363Z,6.05
2023-12-05T06:57:57.959Z,5.93
2023-12-05T07:00:25.958Z,6.18
2023-12-05T07:02:53.782Z,4.10
2023-12-05T07:05:21.735Z,5.45
2023-12-05T07:07:49.513Z,5.93
2023-12-05T07:10:17.209Z,5.05
2023-12-05T07:12:44.903Z,6.60
2023-12-05T07:15:12.779Z,6.32
2023-12-05T07:17:40.518Z,5.95
2023-12-05T07:20:08.819Z,5.63
2023-12-05T07:22:36.936Z,5.35
2023-12-05T07:25:05.102Z,5.30
2023-12-05T07:27:33.139Z,5.30
2023-12-05T07:30:00.997Z,5.15
2023-12-05T07:32:28.668Z,5.93
2023-12-05T07:34:56.470Z,5.57
2023-12-05T07:37:24.126Z,6.18
2023-12-05T07:39:51.830Z,6.13
2023-12-05T07:42:19.513Z,5.68
2023-12-05T07:44:47.432Z,5.65
2023-12-05T07:47:15.657Z,6.70
2023-12-05T07:49:46.468Z,4.68
2023-12-05T07:52:14.180Z,3.90
2023-12-05T07:54:41.836Z,4.95
2023-12-05T07:57:09.728Z,5.32
2023-12-05T07:59:37.447Z,5.60
2023-12-05T08:02:06.900Z,4.88
2023-12-05T08:04:34.868Z,6.05
2023-12-05T08:07:03.182Z,6.28
2023-12-05T08:09:31.050Z,5.57
2023-12-05T08:11:58.737Z,6.07
2023-12-05T08:14:26.386Z,6.05
2023-12-05T08:16:54.057Z,5.90
2023-12-05T08:19:21.859Z,5.97
2023-12-05T08:21:49.512Z,5.82
2023-12-05T08:24:17.121Z,6.47
2023-12-05T08:26:45.113Z,5.97
2023-12-05T08:29:12.821Z,6.00
2023-12-05T08:31:40.481Z,6.15
2023-12-05T08:34:08.250Z,5.78
2023-12-05T08:36:36.171Z,6.70
2023-12-05T08:39:04.949Z,6.43
2023-12-05T08:41:32.577Z,6.35
2023-12-05T08:44:00.253Z,5.28
2023-12-05T08:46:28.628Z,6.82
2023-12-05T08:48:56.591Z,7.97
2023-12-05T08:51:24.274Z,7.53
2023-12-05T08:53:52.001Z,8.02
2023-12-05T08:56:19.737Z,6.53
2023-12-05T08:58:47.562Z,7.95
2023-12-05T09:01:15.463Z,7.00
2023-12-05T09:03:43.238Z,7.18
2023-12-05T09:06:11.473Z,6.95
2023-12-05T09:08:39.272Z,6.90
2023-12-05T09:11:07.379Z,7.38
2023-12-05T09:13:35.199Z,7.15
2023-12-05T09:16:03.985Z,8.07
2023-12-05T09:18:32.661Z,7.00
2023-12-05T09:21:01.377Z,6.55
2023-12-05T09:23:29.199Z,6.72
2023-12-05T09:25:57.687Z,6.20
2023-12-05T09:28:25.339Z,6.38
2023-12-05T09:30:53.272Z,7.07
2023-12-05T09:33:21.763Z,6.70
2023-12-05T09:35:49.474Z,6.95
2023-12-05T09:38:17.368Z,6.15
2023-12-05T09:40:46.429Z,6.60
2023-12-05T09:43:16.149Z,6.15
2023-12-05T09:45:46.698Z,6.45
2023-12-05T09:48:20.168Z,5.57
2023-12-05T09:50:48.105Z,5.32
2023-12-05T09:53:16.260Z,6.03
2023-12-05T09:55:44.269Z,5.72
2023-12-05T09:58:14.059Z,6.07
2023-12-05T10:00:44.113Z,5.90
2023-12-05T10:03:16.567Z,6.57
2023-12-05T10:05:46.567Z,5.10
2023-12-05T10:08:15.581Z,5.22
2023-12-05T10:10:47.028Z,4.32
2023-12-05T10:13:15.039Z,4.60
2023-12-05T10:15:44.433Z,5.55
2023-12-05T10:18:12.345Z,4.95
2023-12-05T10:20:40.723Z,4.60
2023-12-05T10:23:08.572Z,5.13
2023-12-05T10:25:37.522Z,4.38
2023-12-05T10:28:07.945Z,4.28
2023-12-05T10:30:38.889Z,4.75
2023-12-05T10:33:17.625Z,4.28
2023-12-05T10:35:46.883Z,4.40
2023-12-05T10:38:18.687Z,4.85
2023-12-05T10:41:02.421Z,4.10
2023-12-05T10:43:30.236Z,4.90
2023-12-05T10:45:59.160Z,4.50
2023-12-05T10:48:27.279Z,4.53
2023-12-05T10:50:57.458Z,4.30
2023-12-05T10:53:27.699Z,4.38
2023-12-05T10:55:55.326Z,4.55
2023-12-05T10:58:23.134Z,4.43
2023-12-05T11:00:51.417Z,5.00
2023-12-05T11:03:20.440Z,3.53
2023-12-05T11:05:48.177Z,4.88
2023-12-05T11:08:15.918Z,4.32
2023-12-05T11:10:43.870Z,3.83
2023-12-05T11:13:14.604Z,3.95
2023-12-05T11:15:45.320Z,4.80
2023-12-05T11:18:41.110Z,4.10
2023-12-05T11:21:44.780Z,3.55
2023-12-05T11:24:24.931Z,3.53
2023-12-05T11:27:10.807Z,3.50
2023-12-05T11:29:42.451Z,5.13
2023-12-05T11:32:22.633Z,3.03
2023-12-05T11:35:11.493Z,2.97
2023-12-05T11:38:03.093Z,3.50
2023-12-05T11:40:31.145Z,2.30
2023-12-05T11:43:05.984Z,2.63
2023-12-05T11:45:34.074Z,2.38
2023-12-05T11:48:03.189Z,2.65
2023-12-05T11:51:01.201Z,2.63
2023-12-05T11:53:29.322Z,3.05
2023-12-05T11:55:58.804Z,2.72
2023-12-05T11:58:30.511Z,3.00
2023-12-05T12:01:17.387Z,2.58
2023-12-05T12:03:53.854Z,2.78
2023-12-05T12:06:24.528Z,2.60
2023-12-05T12:08:57.681Z,2.53
2023-12-05T12:11:25.432Z,2.85
2023-12-05T12:13:53.314Z,2.45
2023-12-05T12:16:21.948Z,3.05
2023-12-05T12:18:54.199Z,2.70
2023-12-05T12:21:31.255Z,2.22
2023-12-05T12:23:59.944Z,2.35
2023-12-05T12:26:31.785Z,3.13
2023-12-05T12:29:08.034Z,2.78
2023-12-05T12:31:36.698Z,2.20
2023-12-05T12:34:06.985Z,2.03
2023-12-05T12:36:36.123Z,1.55
2023-12-05T12:39:04.437Z,1.45
2023-12-05T12:41:32.571Z,1.90
2023-12-05T12:44:00.237Z,1.60
2023-12-05T12:46:28.378Z,1.45
2023-12-05T12:48:57.910Z,1.80
2023-12-05T12:51:25.605Z,1.77
2023-12-05T12:53:53.975Z,2.03
2023-12-05T12:56:22.034Z,1.70
2023-12-05T12:58:50.170Z,2.10
2023-12-05T13:01:19.123Z,1.88
2023-12-05T13:03:46.987Z,2.22
2023-12-05T13:06:14.941Z,1.83
2023-12-05T13:08:43.149Z,1.85
2023-12-05T13:11:11.159Z,1.83
2023-12-05T13:13:39.586Z,1.80
2023-12-05T13:16:08.089Z,1.55
2023-12-05T13:18:45.494Z,1.75
2023-12-05T13:23:45.240Z,1.58
2023-12-05T13:26:13.533Z,1.75
2023-12-05T13:28:41.341Z,4.45
2023-12-05T13:31:08.993Z,2.80
2023-12-05T13:33:36.926Z,2.53
2023-12-05T13:36:05.077Z,2.08
2023-12-05T13:38:32.697Z,1.70
2023-12-05T13:41:00.378Z,2.53
2023-12-05T13:43:28.199Z,3.10
2023-12-05T13:45:55.963Z,2.55
2023-12-05T13:48:23.734Z,2.13
2023-12-05T13:50:51.427Z,1.90
2023-12-05T13:53:19.029Z,1.58
2023-12-05T13:55:46.832Z,1.40
2023-12-05T13:58:14.659Z,1.65
2023-12-05T14:00:42.753Z,1.35
2023-12-05T14:03:10.795Z,1.00
2023-12-05T14:05:38.550Z,1.10
2023-12-05T14:08:06.383Z,0.82
2023-12-05T14:10:34.105Z,1.00
2023-12-05T14:13:01.780Z,0.90
2023-12-05T14:15:29.443Z,0.93
2023-12-05T14:17:57.810Z,1.55
2023-12-05T14:20:25.810Z,1.30
2023-12-05T14:22:53.311Z,1.08
2023-12-05T14:25:21.067Z,1.85
2023-12-05T14:27:48.943Z,3.92
2023-12-05T14:30:16.600Z,4.53
2023-12-05T14:32:44.357Z,8.85
2023-12-05T14:35:12.465Z,5.75
2023-12-05T14:37:40.089Z,2.25
2023-12-05T14:40:08.290Z,2.60
2023-12-05T14:42:38.671Z,2.83
2023-12-05T14:45:07.539Z,1.58
2023-12-05T14:47:35.754Z,1.70
2023-12-05T14:50:03.590Z,1.60
2023-12-05T14:52:31.554Z,1.30
2023-12-05T14:54:59.338Z,1.80
2023-12-05T14:57:27.419Z,1.60
2023-12-05T14:59:56.456Z,2.10
2023-12-05T15:02:24.202Z,1.63
2023-12-05T15:04:52.041Z,1.10
2023-12-05T15:07:20.007Z,1.33
2023-12-05T15:09:47.924Z,1.55
2023-12-05T15:12:15.897Z,1.73
2023-12-05T15:14:43.726Z,1.63
2023-12-05T15:17:11.701Z,1.70
2023-12-05T15:19:39.433Z,1.60
2023-12-05T15:22:27.564Z,1.80
2023-12-05T15:24:55.383Z,1.73
2023-12-05T15:27:23.587Z,1.80
2023-12-05T15:29:51.348Z,2.22
2023-12-05T15:32:19.336Z,1.90
2023-12-05T15:34:47.204Z,2.10
2023-12-05T15:37:14.871Z,2.25
2023-12-05T15:39:42.740Z,2.40
2023-12-05T15:42:10.692Z,2.20
2023-12-05T15:44:38.996Z,2.25
2023-12-05T15:47:07.646Z,2.30
2023-12-05T15:49:36.174Z,3.17
2023-12-05T15:52:04.070Z,2.83
2023-12-05T15:54:34.188Z,2.83
2023-12-05T15:57:02.032Z,2.58
2023-12-05T15:59:29.961Z,3.33
2023-12-05T16:01:57.902Z,4.63
2023-12-05T16:04:25.548Z,4.85
2023-12-05T16:06:53.299Z,4.40
2023-12-05T16:09:21.938Z,4.50
2023-12-05T16:11:52.846Z,3.05
2023-12-05T16:14:22.953Z,3.08
2023-12-05T16:16:50.977Z,2.95
2023-12-05T16:19:19.138Z,2.97
2023-12-05T16:21:47.624Z,3.17
2023-12-05T16:24:15.200Z,3.38
2023-12-05T16:26:43.171Z,3.65
2023-12-05T16:29:10.843Z,2.83
2023-12-05T16:31:38.600Z,3.53
2023-12-05T16:34:08.985Z,3.15
2023-12-05T16:36:39.167Z,3.13
2023-12-05T16:39:06.866Z,4.18
2023-12-05T16:41:35.527Z,3.90
2023-12-05T16:44:03.501Z,3.55
2023-12-05T16:46:31.120Z,3.70
2023-12-05T16:48:59.029Z,4.18
2023-12-05T16:51:27.260Z,7.75
2023-12-05T16:53:55.109Z,8.43
2023-12-05T16:56:23.159Z,8.50
2023-12-05T16:58:51.021Z,6.95
2023-12-05T17:01:19.059Z,7.75
2023-12-05T17:03:47.084Z,10.43
2023-12-05T17:06:15.014Z,9.25
2023-12-05T17:08:43.172Z,7.18
2023-12-05T17:11:11.307Z,5.75
2023-12-05T17:13:39.319Z,4.55
2023-12-05T17:16:07.975Z,5.82
2023-12-05T17:18:36.008Z,5.07
2023-12-05T17:21:04.240Z,6.18
2023-12-05T17:23:32.269Z,5.75
2023-12-05T17:26:01.411Z,5.15
2023-12-05T17:28:29.726Z,5.65
2023-12-05T17:30:57.655Z,5.20
2023-12-05T17:33:25.910Z,4.63
2023-12-05T17:35:53.873Z,5.90
2023-12-05T17:38:21.910Z,5.95
2023-12-05T17:40:49.931Z,6.72
2023-12-05T17:43:18.172Z,6.50
2023-12-05T17:45:46.072Z,6.22
2023-12-05T17:48:14.113Z,5.90
2023-12-05T17:50:42.372Z,5.55
2023-12-05T17:53:10.240Z,5.70
2023-12-05T17:55:38.115Z,5.55
2023-12-05T17:58:06.092Z,5.07
2023-12-05T18:00:34.222Z,5.13
2023-12-05T18:03:02.351Z,4.75
2023-12-05T18:05:30.388Z,4.13
2023-12-05T18:08:04.847Z,4.50
2023-12-05T18:10:36.535Z,4.30
2023-12-05T18:13:04.527Z,4.57
2023-12-05T18:15:32.625Z,5.50
2023-12-05T18:18:01.104Z,5.50
2023-12-05T18:20:29.442Z,5.90
2023-12-05T18:22:57.762Z,7.28
2023-12-05T18:25:25.689Z,7.60
2023-12-05T18:27:53.723Z,7.07
2023-12-05T18:30:22.009Z,7.38
2023-12-05T18:32:50.604Z,6.68
2023-12-05T18:35:18.823Z,6.95
2023-12-05T18:37:48.937Z,6.68
2023-12-05T18:40:17.484Z,6.30
2023-12-05T18:42:45.564Z,6.72
2023-12-05T18:45:13.492Z,6.78
2023-12-05T18:47:41.526Z,5.80
2023-12-05T18:50:09.658Z,7.35
2023-12-05T18:52:37.788Z,6.70
2023-12-05T18:55:07.024Z,5.68
2023-12-05T18:57:35.168Z,7.10
2023-12-05T19:00:03.432Z,6.35
2023-12-05T19:02:31.488Z,7.35
2023-12-05T19:04:59.494Z,6.30
2023-12-05T19:07:29.725Z,7.05
2023-12-05T19:09:58.333Z,7.20
2023-12-05T19:12:26.198Z,6.65
2023-12-05T19:14:54.905Z,7.20
2023-12-05T19:17:24.442Z,7.00
2023-12-05T19:19:54.720Z,7.25
2023-12-05T19:22:22.747Z,6.97
2023-12-05T19:24:50.956Z,6.85
2023-12-05T19:27:19.499Z,7.60
2023-12-05T19:29:48.486Z,8.25
2023-12-05T19:32:16.824Z,10.23
2023-12-05T19:34:49.616Z,7.82
2023-12-05T19:37:25.372Z,7.38
2023-12-05T19:39:53.306Z,7.70
2023-12-05T19:42:21.294Z,7.45
2023-12-05T19:44:49.489Z,6.82
2023-12-05T19:47:19.102Z,8.13
2023-12-05T19:49:47.805Z,6.22
2023-12-05T19:52:16.148Z,5.97
2023-12-05T19:54:44.304Z,6.72
2023-12-05T19:57:13.202Z,6.35
2023-12-05T19:59:41.178Z,5.47
2023-12-05T20:02:09.166Z,6.05
2023-12-05T20:04:37.518Z,5.70
2023-12-05T20:07:05.586Z,6.18
2023-12-05T20:09:33.991Z,5.50
2023-12-05T20:12:02.260Z,6.63
2023-12-05T20:14:30.334Z,5.72
2023-12-05T20:16:58.390Z,5.95
2023-12-05T20:19:26.365Z,5.68
2023-12-05T20:21:54.384Z,6.82
2023-12-05T20:24:22.396Z,6.43
2023-12-05T20:26:50.815Z,12.93
2023-12-05T20:29:18.924Z,6.93
2023-12-05T20:31:46.919Z,7.35
2023-12-05T20:34:14.873Z,7.05
2023-12-05T20:36:43.113Z,7.53
2023-12-05T20:39:13.085Z,8.02
2023-12-05T20:41:41.148Z,8.25
2023-12-05T20:44:09.189Z,7.72
2023-12-05T20:46:37.259Z,7.60
2023-12-05T20:49:05.255Z,8.02
2023-12-05T20:51:33.281Z,7.03
2023-12-05T20:54:01.383Z,7.50
2023-12-05T20:56:29.319Z,7.05
2023-12-05T20:58:57.521Z,7.82
2023-12-05T21:01:25.654Z,7.95
2023-12-05T21:03:54.363Z,7.50
2023-12-05T21:06:22.478Z,6.72
2023-12-05T21:09:10.754Z,7.68
2023-12-05T21:11:38.864Z,6.65
2023-12-05T21:14:13.907Z,37.40
2023-12-05T21:16:42.837Z,7.43
2023-12-05T21:19:11.456Z,6.60
2023-12-05T21:21:40.492Z,6.80
2023-12-05T21:24:08.946Z,7.72
2023-12-05T21:26:36.934Z,6.60
2023-12-05T21:29:04.838Z,5.85
2023-12-05T21:31:33.392Z,6.72
2023-12-05T21:34:01.654Z,7.68
2023-12-05T21:36:29.645Z,7.32
2023-12-05T21:38:59.725Z,7.82
2023-12-05T21:41:28.400Z,7.28
2023-12-05T21:43:56.348Z,7.97
2023-12-05T21:46:24.375Z,10.35
2023-12-05T21:48:52.494Z,8.35
2023-12-05T21:51:20.494Z,8.75
2023-12-05T21:53:48.416Z,8.50
2023-12-05T21:56:16.447Z,8.07
2023-12-05T21:58:44.344Z,8.10
2023-12-05T22:01:13.054Z,8.77
2023-12-05T22:03:41.836Z,7.60
2023-12-05T22:06:10.288Z,8.35
2023-12-05T22:08:38.824Z,8.55
2023-12-05T22:11:06.927Z,7.88
2023-12-05T22:13:35.551Z,9.05
2023-12-05T22:16:04.456Z,8.18
2023-12-05T22:18:32.873Z,7.35
2023-12-05T22:21:02.589Z,6.60
2023-12-05T22:23:34.397Z,7.07
2023-12-05T22:26:04.298Z,6.57
2023-12-05T22:28:33.112Z,7.03
2023-12-05T22:31:01.524Z,6.80
2023-12-05T22:33:29.667Z,5.97
2023-12-05T22:35:58.528Z,6.07
2023-12-05T22:38:26.942Z,5.18
2023-12-05T22:40:54.854Z,5.47
2023-12-05T22:43:22.892Z,5.90
2023-12-05T22:45:50.906Z,8.80
2023-12-05T22:48:19.037Z,6.63
2023-12-05T22:50:47.175Z,4.70
2023-12-05T22:53:15.173Z,4.90
2023-12-05T22:55:43.151Z,6.20
2023-12-05T22:58:12.584Z,5.38
2023-12-05T23:00:41.792Z,5.15
2023-12-05T23:03:09.818Z,5.35
2023-12-05T23:05:37.838Z,4.85
2023-12-05T23:08:05.832Z,5.53
2023-12-05T23:10:35.512Z,6.30
2023-12-05T23:13:03.631Z,5.78
2023-12-05T23:15:31.639Z,6.38
2023-12-05T23:17:59.693Z,5.70
2023-12-05T23:20:27.706Z,5.82
2023-12-05T23:22:55.614Z,7.32
2023-12-05T23:25:23.534Z,6.43
2023-12-05T23:27:51.742Z,7.15
2023-12-05T23:30:19.927Z,5.93
2023-12-05T23:32:47.897Z,6.07
2023-12-05T23:35:15.841Z,6.35
2023-12-05T23:37:43.808Z,6.82
2023-12-05T23:40:12.628Z,6.60
2023-12-05T23:42:40.691Z,7.20
2023-12-05T23:45:08.760Z,7.65
2023-12-05T23:47:36.836Z,7.40
2023-12-05T23:50:04.867Z,7.97
2023-12-05T23:52:32.806Z,7.38
2023-12-05T23:55:00.715Z,7.65
2023-12-05T23:57:28.634Z,6.75
2023-12-05T23:59:56.544Z,7.88
